Time;durP1;ratioP1;P1;durP2;ratioP2;P2;SDS_P1;SDS_P2;PMS_P1;PMS_P2;Temp;Humidity;BMP_temperature;BMP_pressure;BME280_temperature;BME280_humidity;BME280_pressure;Samples;Min_cycle;Max_cycle;Signal;HPM_P1;HPM_P2
2021/09/27 20:08:16;;;;;;;22.65;8.90;;;;;;;8.71;81.77;100473.00;5154677;27;20845;-79
2021/09/27 20:11:15;;;;;;;20.30;9.70;;;;;;;8.82;81.74;100468.00;5154668;27;20039;-84
2021/09/27 20:13:44;;;;;;;26.63;10.05;;;;;;;8.89;81.74;100474.59;5137917;27;20117;-81
2021/09/27 20:16:15;;;;;;;21.20;8.95;;;;;;;8.94;81.37;100470.88;5105894;27;20031;-83
2021/09/27 20:18:45;;;;;;;24.98;10.32;;;;;;;8.99;80.90;100468.81;5099824;28;20142;-80
2021/09/27 20:21:12;;;;;;;23.10;9.77;;;;;;;9.02;81.13;100472.13;5077904;28;20492;-79
2021/09/27 20:23:38;;;;;;;22.23;9.77;;;;;;;9.06;80.74;100473.63;5111085;28;20627;-80
2021/09/27 20:26:06;;;;;;;20.67;9.55;;;;;;;9.05;80.97;100466.66;5113724;28;20178;-85
2021/09/27 20:28:34;;;;;;;23.70;12.45;;;;;;;9.05;80.37;100471.09;5080681;28;20054;-83
2021/09/27 20:31:00;;;;;;;23.20;10.20;;;;;;;9.00;80.03;100474.00;5095640;27;20043;-83
2021/09/27 20:33:28;;;;;;;28.60;12.57;;;;;;;9.04;79.95;100475.50;5094477;28;20058;-83
2021/09/27 20:35:56;;;;;;;22.40;9.88;;;;;;;9.01;79.91;100473.06;5113177;28;20032;-83
2021/09/27 20:38:23;;;;;;;25.40;9.30;;;;;;;9.04;80.01;100482.59;5081261;28;20054;-80
2021/09/27 20:40:59;;;;;;;22.27;10.15;;;;;;;9.03;79.59;100478.25;5100593;28;20537;-82
2021/09/27 20:43:29;;;;;;;27.33;10.32;;;;;;;8.99;79.71;100489.91;5045706;28;20059;-81
2021/09/27 20:45:55;;;;;;;26.00;10.13;;;;;;;9.02;79.90;100487.09;5059446;28;20135;-80
2021/09/27 20:48:21;;;;;;;24.15;9.85;;;;;;;9.02;79.35;100484.44;5074878;28;20099;-81
2021/09/27 20:50:49;;;;;;;23.30;9.85;;;;;;;9.10;78.96;100495.44;5062856;28;20408;-79
2021/09/27 20:53:16;;;;;;;28.45;11.27;;;;;;;9.14;78.71;100491.66;5096540;28;20056;-83
2021/09/27 20:55:45;;;;;;;24.08;10.93;;;;;;;9.14;78.54;100483.75;5061318;28;20043;-82
2021/09/27 20:58:11;;;;;;;21.42;9.52;;;;;;;9.16;78.30;100484.50;5036574;28;20090;-81
2021/09/27 21:00:49;;;;;;;17.63;9.30;;;;;;;9.13;78.11;100484.69;5057692;28;20385;-81
2021/09/27 21:03:17;;;;;;;19.45;9.70;;;;;;;9.13;78.40;100482.03;5087838;28;20564;-79
2021/09/27 21:05:43;;;;;;;22.43;9.10;;;;;;;9.15;77.93;100492.53;5072431;28;20137;-78
2021/09/27 21:08:10;;;;;;;24.05;10.23;;;;;;;9.15;78.23;100497.81;5071476;28;20060;-82
2021/09/27 21:10:37;;;;;;;27.50;9.77;;;;;;;9.14;77.94;100491.66;5055121;28;20044;-84
2021/09/27 21:13:04;;;;;;;23.25;9.93;;;;;;;9.15;77.94;100506.56;5069938;28;20105;-82
2021/09/27 21:15:30;;;;;;;20.20;9.13;;;;;;;9.12;77.73;100509.41;5093085;28;20051;-80
2021/09/27 21:17:57;;;;;;;26.50;8.90;;;;;;;9.12;77.58;100504.13;5110244;28;20047;-79
2021/09/27 21:20:24;;;;;;;20.75;9.00;;;;;;;9.11;77.43;100507.69;5098702;28;20043;-82
2021/09/27 21:22:51;;;;;;;19.52;8.20;;;;;;;9.15;77.53;100501.28;5116856;28;20047;-80
2021/09/27 21:25:18;;;;;;;23.27;9.32;;;;;;;9.15;77.50;100514.47;5099377;28;20087;-82
2021/09/27 21:27:45;;;;;;;29.08;10.65;;;;;;;9.16;77.56;100505.63;5116106;28;20050;-81
2021/09/27 21:30:12;;;;;;;17.60;8.65;;;;;;;9.10;77.67;100510.38;5114659;28;20076;-82
2021/09/27 21:32:38;;;;;;;22.08;8.43;;;;;;;9.14;77.78;100511.94;5099112;28;20043;-83
2021/09/27 21:35:05;;;;;;;22.08;9.50;;;;;;;9.17;77.55;100506.47;5098086;28;20115;-80
2021/09/27 21:37:31;;;;;;;22.95;8.82;;;;;;;9.18;77.35;100506.41;5096951;28;20047;-80
2021/09/27 21:39:57;;;;;;;19.95;8.70;;;;;;;9.19;77.16;100518.63;5097242;28;20081;-81
2021/09/27 21:42:23;;;;;;;20.75;7.80;;;;;;;9.18;77.19;100506.41;5115784;28;20092;-82
2021/09/27 21:44:48;;;;;;;17.40;8.30;;;;;;;9.17;77.37;100512.59;5096578;28;20039;-78
2021/09/27 21:47:15;;;;;;;20.17;7.85;;;;;;;9.15;77.24;100517.13;5097298;28;20055;-80
2021/09/27 21:49:41;;;;;;;21.35;7.65;;;;;;;9.14;77.28;100525.97;5115266;28;20039;-81
2021/09/27 21:52:08;;;;;;;17.65;7.60;;;;;;;9.12;77.46;100514.66;5096925;28;20347;-83
2021/09/27 21:54:37;;;;;;;16.05;6.80;;;;;;;9.10;77.24;100516.53;5118701;28;20082;-87
2021/09/27 21:57:28;;;;;;;15.27;6.93;;;;;;;9.15;77.20;100525.03;5068232;28;20224;-86
2021/09/27 21:59:54;;;;;;;20.40;8.63;;;;;;;9.14;77.41;100533.88;5042351;28;20439;-81
2021/09/27 22:02:20;;;;;;;20.88;7.95;;;;;;;9.19;76.62;100533.63;5058675;28;20048;-82
2021/09/27 22:05:02;;;;;;;18.33;7.75;;;;;;;9.14;76.71;100538.31;5041882;28;20610;-83
2021/09/27 22:07:30;;;;;;;19.10;7.78;;;;;;;9.12;76.94;100540.19;5041394;28;20049;-80
2021/09/27 22:09:55;;;;;;;14.48;6.82;;;;;;;9.13;76.69;100542.72;5056952;28;20493;-82
2021/09/27 22:12:21;;;;;;;15.40;6.78;;;;;;;9.18;76.65;100542.47;5039446;28;20137;-81
2021/09/27 22:14:48;;;;;;;15.48;7.38;;;;;;;9.15;76.65;100540.88;5007889;28;20040;-82
2021/09/27 22:17:14;;;;;;;17.42;7.18;;;;;;;9.09;76.77;100543.84;5024816;28;20551;-83
2021/09/27 22:19:40;;;;;;;23.33;10.05;;;;;;;9.06;76.75;100541.41;5056638;28;20125;-79
2021/09/27 22:22:06;;;;;;;36.05;18.52;;;;;;;9.07;76.67;100543.94;5056297;28;20056;-80
2021/09/27 22:24:32;;;;;;;19.30;7.97;;;;;;;9.10;76.55;100542.06;5024359;28;20051;-81
2021/09/27 22:26:58;;;;;;;16.77;6.38;;;;;;;9.07;76.65;100545.72;5024847;28;20047;-81
2021/09/27 22:29:23;;;;;;;17.48;6.00;;;;;;;9.07;76.35;100538.69;5079674;28;20040;-78
2021/09/27 22:31:49;;;;;;;15.63;6.18;;;;;;;9.07;76.46;100545.72;5094598;28;20134;-81
2021/09/27 22:34:15;;;;;;;12.10;6.25;;;;;;;9.02;76.12;100545.13;5096596;28;20040;-80
2021/09/27 22:36:41;;;;;;;13.90;5.35;;;;;;;9.01;76.15;100557.50;5079710;28;20096;-80
2021/09/27 22:39:10;;;;;;;13.13;5.65;;;;;;;9.03;76.21;100554.75;5081140;28;20031;-82
2021/09/27 22:41:36;;;;;;;13.25;6.30;;;;;;;9.05;75.77;100566.09;5115670;28;20387;-82
2021/09/27 22:44:02;;;;;;;16.98;6.40;;;;;;;9.04;76.09;100559.94;5079771;28;20046;-83
2021/09/27 22:46:28;;;;;;;12.43;5.85;;;;;;;9.04;75.99;100564.38;5097125;28;20450;-85
2021/09/27 22:48:53;;;;;;;59.53;21.77;;;;;;;9.02;76.10;100569.75;5079259;28;20073;-76
2021/09/27 22:51:19;;;;;;;17.38;6.25;;;;;;;8.99;76.49;100577.00;5112972;28;20510;-79
2021/09/27 22:53:45;;;;;;;15.10;6.18;;;;;;;8.98;76.51;100580.56;5113577;28;20066;-74
2021/09/27 22:56:10;;;;;;;13.52;5.88;;;;;;;8.96;76.71;100579.78;5111425;28;20123;-78
2021/09/27 22:58:37;;;;;;;13.30;5.45;;;;;;;8.95;76.66;100570.16;5095101;28;20049;-82
2021/09/27 23:01:03;;;;;;;10.02;5.13;;;;;;;8.92;77.12;100573.81;5078188;28;20507;-81
2021/09/27 23:03:28;;;;;;;11.95;5.32;;;;;;;8.92;76.38;100580.91;5113987;28;20066;-78
2021/09/27 23:05:54;;;;;;;14.07;5.85;;;;;;;8.86;76.68;100580.31;5094410;28;20047;-78
2021/09/27 23:08:20;;;;;;;12.95;5.97;;;;;;;8.96;76.66;100578.00;5112599;28;20040;-75
2021/09/27 23:10:48;;;;;;;13.68;6.35;;;;;;;8.96;76.87;100577.16;5112472;28;20147;-81
2021/09/27 23:13:15;;;;;;;11.05;5.35;;;;;;;8.99;76.28;100582.25;5112810;28;20051;-76
2021/09/27 23:16:00;;;;;;;17.45;6.40;;;;;;;8.96;75.80;100590.34;5112648;28;20062;-81
2021/09/27 23:18:26;;;;;;;13.57;5.57;;;;;;;8.95;76.40;100588.63;5094641;28;20079;-80
2021/09/27 23:20:54;;;;;;;10.95;5.13;;;;;;;8.91;76.37;100585.34;5111301;28;20070;-79
2021/09/27 23:23:20;;;;;;;12.73;5.40;;;;;;;8.92;76.41;100594.09;5112381;28;20039;-76
2021/09/27 23:25:46;;;;;;;12.15;5.50;;;;;;;8.87;76.75;100589.94;5127314;27;20142;-76
2021/09/27 23:28:12;;;;;;;15.00;5.45;;;;;;;9.01;76.20;100589.16;5112236;28;20130;-76
2021/09/27 23:30:38;;;;;;;12.52;5.20;;;;;;;8.94;76.10;100590.44;5112132;28;20043;-76
2021/09/27 23:33:04;;;;;;;12.48;6.07;;;;;;;9.03;76.28;100583.78;5112660;28;20043;-77
2021/09/27 23:35:30;;;;;;;11.82;4.78;;;;;;;8.99;75.62;100592.81;5114749;28;20399;-78
2021/09/27 23:37:56;;;;;;;9.95;5.22;;;;;;;9.07;75.87;100606.41;5112353;28;20054;-78
2021/09/27 23:40:22;;;;;;;10.07;4.38;;;;;;;9.00;75.59;100602.44;5093704;28;20624;-76
2021/09/27 23:42:48;;;;;;;13.90;4.43;;;;;;;9.04;75.70;100593.41;5110665;28;20412;-77
2021/09/27 23:45:20;;;;;;;10.68;4.65;;;;;;;9.05;75.41;100592.47;5112578;28;20047;-75
2021/09/27 23:47:47;;;;;;;8.18;4.50;;;;;;;9.03;75.34;100600.47;5110505;28;20517;-78
2021/09/27 23:50:13;;;;;;;10.40;4.82;;;;;;;9.00;75.21;100599.81;5111963;28;20500;-78
2021/09/27 23:52:39;;;;;;;11.20;4.60;;;;;;;9.00;75.06;100602.44;5111681;28;20043;-78
2021/09/27 23:55:05;;;;;;;11.43;4.65;;;;;;;9.03;75.10;100604.91;5111455;28;20042;-76
2021/09/27 23:57:31;;;;;;;11.63;5.00;;;;;;;9.01;75.35;100609.41;5110537;28;20126;-75
2021/09/27 23:59:57;;;;;;;7.75;4.40;;;;;;;9.05;75.25;100608.31;5112341;28;20126;-80
